sensor_id;sensor_type;location;lat;lon;timestamp;P1;durP1;ratioP1;P2;durP2;ratioP2
53939;SDS011;39850;43.324;21.916;2022-10-31T00:02:50;43.0;;;40.0;;
53939;SDS011;39850;43.324;21.916;2022-10-31T00:07:26;43.0;;;40.0;;
53939;SDS011;39850;43.324;21.916;2022-10-31T00:12:04;36.0;;;34.0;;
53939;SDS011;39850;43.324;21.916;2022-10-31T00:16:41;36.0;;;34.0;;
53939;SDS011;39850;43.324;21.916;2022-10-31T00:21:20;30.0;;;28.0;;
53939;SDS011;39850;43.324;21.916;2022-10-31T00:26:04;30.0;;;28.0;;
53939;SDS011;39850;43.324;21.916;2022-10-31T00:30:41;30.0;;;28.0;;
53939;SDS011;39850;43.324;21.916;2022-10-31T00:35:18;30.0;;;28.0;;
53939;SDS011;39850;43.324;21.916;2022-10-31T01:31:09;25.0;;;23.0;;
53939;SDS011;39850;43.324;21.916;2022-10-31T01:35:46;25.0;;;23.0;;
53939;SDS011;39850;43.324;21.916;2022-10-31T01:40:22;25.0;;;23.0;;
53939;SDS011;39850;43.324;21.916;2022-10-31T01:45:05;25.0;;;23.0;;
53939;SDS011;39850;43.324;21.916;2022-10-31T01:50:03;25.0;;;23.0;;
53939;SDS011;39850;43.324;21.916;2022-10-31T01:55:05;25.0;;;23.0;;
53939;SDS011;39850;43.324;21.916;2022-10-31T02:30:20;27.0;;;26.0;;
53939;SDS011;39850;43.324;21.916;2022-10-31T02:35:41;27.0;;;26.0;;
53939;SDS011;39850;43.324;21.916;2022-10-31T02:40:49;26.0;;;26.0;;
53939;SDS011;39850;43.324;21.916;2022-10-31T02:45:55;26.0;;;26.0;;
53939;SDS011;39850;43.324;21.916;2022-10-31T02:50:54;27.0;;;26.0;;
53939;SDS011;39850;43.324;21.916;2022-10-31T02:56:18;27.0;;;26.0;;
53939;SDS011;39850;43.324;21.916;2022-10-31T03:01:51;26.0;;;26.0;;
53939;SDS011;39850;43.324;21.916;2022-10-31T03:07:15;26.0;;;26.0;;
53939;SDS011;39850;43.324;21.916;2022-10-31T03:12:31;27.0;;;26.0;;
53939;SDS011;39850;43.324;21.916;2022-10-31T03:17:39;27.0;;;26.0;;
53939;SDS011;39850;43.324;21.916;2022-10-31T03:52:03;25.0;;;24.0;;
53939;SDS011;39850;43.324;21.916;2022-10-31T03:57:14;25.0;;;24.0;;
53939;SDS011;39850;43.324;21.916;2022-10-31T04:02:16;24.0;;;24.0;;
53939;SDS011;39850;43.324;21.916;2022-10-31T04:07:05;24.0;;;24.0;;
53939;SDS011;39850;43.324;21.916;2022-10-31T04:11:58;24.0;;;23.0;;
53939;SDS011;39850;43.324;21.916;2022-10-31T04:16:45;24.0;;;23.0;;
53939;SDS011;39850;43.324;21.916;2022-10-31T04:21:30;24.0;;;22.0;;
53939;SDS011;39850;43.324;21.916;2022-10-31T04:26:13;24.0;;;22.0;;
53939;SDS011;39850;43.324;21.916;2022-10-31T04:30:51;23.0;;;22.0;;
53939;SDS011;39850;43.324;21.916;2022-10-31T04:35:28;23.0;;;22.0;;
53939;SDS011;39850;43.324;21.916;2022-10-31T05:12:30;22.0;;;22.0;;
53939;SDS011;39850;43.324;21.916;2022-10-31T05:17:06;22.0;;;22.0;;
53939;SDS011;39850;43.324;21.916;2022-10-31T05:21:43;22.0;;;22.0;;
53939;SDS011;39850;43.324;21.916;2022-10-31T05:26:19;22.0;;;22.0;;
53939;SDS011;39850;43.324;21.916;2022-10-31T05:30:56;22.0;;;22.0;;
53939;SDS011;39850;43.324;21.916;2022-10-31T05:35:33;22.0;;;22.0;;
53939;SDS011;39850;43.324;21.916;2022-10-31T05:40:18;22.0;;;22.0;;
53939;SDS011;39850;43.324;21.916;2022-10-31T05:44:59;22.0;;;22.0;;
53939;SDS011;39850;43.324;21.916;2022-10-31T05:49:36;23.0;;;22.0;;
53939;SDS011;39850;43.324;21.916;2022-10-31T05:54:12;23.0;;;22.0;;
53939;SDS011;39850;43.324;21.916;2022-10-31T05:58:49;23.0;;;22.0;;
53939;SDS011;39850;43.324;21.916;2022-10-31T06:31:07;28.0;;;26.0;;
53939;SDS011;39850;43.324;21.916;2022-10-31T06:35:47;28.0;;;26.0;;
53939;SDS011;39850;43.324;21.916;2022-10-31T06:40:24;29.0;;;26.0;;
53939;SDS011;39850;43.324;21.916;2022-10-31T06:45:02;29.0;;;26.0;;
53939;SDS011;39850;43.324;21.916;2022-10-31T06:49:39;30.0;;;27.0;;
53939;SDS011;39850;43.324;21.916;2022-10-31T06:54:21;30.0;;;27.0;;
53939;SDS011;39850;43.324;21.916;2022-10-31T06:58:58;30.0;;;27.0;;
53939;SDS011;39850;43.324;21.916;2022-10-31T07:03:35;34.0;;;30.0;;
53939;SDS011;39850;43.324;21.916;2022-10-31T07:08:14;34.0;;;30.0;;
53939;SDS011;39850;43.324;21.916;2022-10-31T07:12:56;38.0;;;34.0;;
53939;SDS011;39850;43.324;21.916;2022-10-31T07:17:36;38.0;;;34.0;;
53939;SDS011;39850;43.324;21.916;2022-10-31T07:49:58;33.0;;;31.0;;
53939;SDS011;39850;43.324;21.916;2022-10-31T07:54:34;33.0;;;31.0;;
53939;SDS011;39850;43.324;21.916;2022-10-31T07:59:11;33.0;;;31.0;;
53939;SDS011;39850;43.324;21.916;2022-10-31T08:03:47;34.0;;;30.0;;
53939;SDS011;39850;43.324;21.916;2022-10-31T08:08:24;34.0;;;30.0;;
53939;SDS011;39850;43.324;21.916;2022-10-31T08:13:10;34.0;;;31.0;;
53939;SDS011;39850;43.324;21.916;2022-10-31T08:17:48;34.0;;;31.0;;
53939;SDS011;39850;43.324;21.916;2022-10-31T08:22:25;34.0;;;32.0;;
53939;SDS011;39850;43.324;21.916;2022-10-31T08:27:02;34.0;;;32.0;;
53939;SDS011;39850;43.324;21.916;2022-10-31T08:31:39;35.0;;;33.0;;
53939;SDS011;39850;43.324;21.916;2022-10-31T08:36:16;35.0;;;33.0;;
53939;SDS011;39850;43.324;21.916;2022-10-31T09:13:22;29.0;;;27.0;;
53939;SDS011;39850;43.324;21.916;2022-10-31T09:18:00;29.0;;;27.0;;
53939;SDS011;39850;43.324;21.916;2022-10-31T09:22:36;30.0;;;28.0;;
53939;SDS011;39850;43.324;21.916;2022-10-31T09:27:13;30.0;;;28.0;;
53939;SDS011;39850;43.324;21.916;2022-10-31T09:31:50;29.0;;;27.0;;
53939;SDS011;39850;43.324;21.916;2022-10-31T09:36:27;29.0;;;27.0;;
53939;SDS011;39850;43.324;21.916;2022-10-31T09:41:30;29.0;;;28.0;;
53939;SDS011;39850;43.324;21.916;2022-10-31T09:47:05;29.0;;;28.0;;
53939;SDS011;39850;43.324;21.916;2022-10-31T09:52:24;27.0;;;27.0;;
53939;SDS011;39850;43.324;21.916;2022-10-31T09:57:23;27.0;;;27.0;;
53939;SDS011;39850;43.324;21.916;2022-10-31T10:34:45;39.0;;;39.0;;
53939;SDS011;39850;43.324;21.916;2022-10-31T10:39:43;39.0;;;39.0;;
53939;SDS011;39850;43.324;21.916;2022-10-31T10:44:24;34.0;;;34.0;;
53939;SDS011;39850;43.324;21.916;2022-10-31T10:49:24;34.0;;;34.0;;
53939;SDS011;39850;43.324;21.916;2022-10-31T10:54:46;30.0;;;28.0;;
53939;SDS011;39850;43.324;21.916;2022-10-31T10:59:35;30.0;;;28.0;;
53939;SDS011;39850;43.324;21.916;2022-10-31T11:04:35;28.0;;;26.0;;
53939;SDS011;39850;43.324;21.916;2022-10-31T11:09:15;28.0;;;26.0;;
53939;SDS011;39850;43.324;21.916;2022-10-31T11:14:12;26.0;;;25.0;;
53939;SDS011;39850;43.324;21.916;2022-10-31T11:19:09;26.0;;;25.0;;
53939;SDS011;39850;43.324;21.916;2022-10-31T11:53:01;20.0;;;18.0;;
53939;SDS011;39850;43.324;21.916;2022-10-31T11:57:52;20.0;;;18.0;;
53939;SDS011;39850;43.324;21.916;2022-10-31T12:02:31;20.0;;;18.0;;
53939;SDS011;39850;43.324;21.916;2022-10-31T12:07:09;20.0;;;18.0;;
53939;SDS011;39850;43.324;21.916;2022-10-31T12:12:36;20.0;;;17.0;;
53939;SDS011;39850;43.324;21.916;2022-10-31T12:17:44;20.0;;;17.0;;
53939;SDS011;39850;43.324;21.916;2022-10-31T12:23:02;20.0;;;17.0;;
53939;SDS011;39850;43.324;21.916;2022-10-31T12:28:44;20.0;;;17.0;;
53939;SDS011;39850;43.324;21.916;2022-10-31T12:34:47;19.0;;;17.0;;
53939;SDS011;39850;43.324;21.916;2022-10-31T13:11:53;21.0;;;17.0;;
53939;SDS011;39850;43.324;21.916;2022-10-31T13:16:46;21.0;;;17.0;;
53939;SDS011;39850;43.324;21.916;2022-10-31T13:21:42;22.0;;;20.0;;
53939;SDS011;39850;43.324;21.916;2022-10-31T13:26:45;22.0;;;20.0;;
53939;SDS011;39850;43.324;21.916;2022-10-31T13:31:26;21.0;;;17.0;;
53939;SDS011;39850;43.324;21.916;2022-10-31T13:36:37;21.0;;;17.0;;
53939;SDS011;39850;43.324;21.916;2022-10-31T13:41:51;22.0;;;19.0;;
53939;SDS011;39850;43.324;21.916;2022-10-31T13:46:43;22.0;;;19.0;;
53939;SDS011;39850;43.324;21.916;2022-10-31T13:51:33;19.0;;;16.0;;
53939;SDS011;39850;43.324;21.916;2022-10-31T13:56:26;19.0;;;16.0;;
53939;SDS011;39850;43.324;21.916;2022-10-31T14:35:15;19.0;;;14.0;;
53939;SDS011;39850;43.324;21.916;2022-10-31T14:40:41;19.0;;;14.0;;
53939;SDS011;39850;43.324;21.916;2022-10-31T14:46:05;17.0;;;12.0;;
53939;SDS011;39850;43.324;21.916;2022-10-31T14:50:56;15.0;;;12.0;;
53939;SDS011;39850;43.324;21.916;2022-10-31T14:55:50;15.0;;;12.0;;
53939;SDS011;39850;43.324;21.916;2022-10-31T15:00:36;15.0;;;12.0;;
53939;SDS011;39850;43.324;21.916;2022-10-31T15:05:15;15.0;;;12.0;;
53939;SDS011;39850;43.324;21.916;2022-10-31T15:10:02;15.0;;;12.0;;
53939;SDS011;39850;43.324;21.916;2022-10-31T15:14:56;15.0;;;12.0;;
53939;SDS011;39850;43.324;21.916;2022-10-31T15:19:41;15.0;;;12.0;;
53939;SDS011;39850;43.324;21.916;2022-10-31T15:53:18;34.0;;;28.0;;
53939;SDS011;39850;43.324;21.916;2022-10-31T15:58:13;34.0;;;28.0;;
53939;SDS011;39850;43.324;21.916;2022-10-31T16:03:23;48.0;;;40.0;;
53939;SDS011;39850;43.324;21.916;2022-10-31T16:08:01;48.0;;;40.0;;
53939;SDS011;39850;43.324;21.916;2022-10-31T16:12:46;34.0;;;28.0;;
53939;SDS011;39850;43.324;21.916;2022-10-31T16:17:28;34.0;;;28.0;;
53939;SDS011;39850;43.324;21.916;2022-10-31T16:22:20;47.0;;;38.0;;
53939;SDS011;39850;43.324;21.916;2022-10-31T16:27:25;47.0;;;38.0;;
53939;SDS011;39850;43.324;21.916;2022-10-31T16:32:33;32.0;;;24.0;;
53939;SDS011;39850;43.324;21.916;2022-10-31T16:37:27;32.0;;;24.0;;
53939;SDS011;39850;43.324;21.916;2022-10-31T17:14:37;70.0;;;58.0;;
53939;SDS011;39850;43.324;21.916;2022-10-31T17:19:15;70.0;;;58.0;;
53939;SDS011;39850;43.324;21.916;2022-10-31T17:23:52;79.0;;;64.0;;
53939;SDS011;39850;43.324;21.916;2022-10-31T17:28:30;79.0;;;64.0;;
53939;SDS011;39850;43.324;21.916;2022-10-31T17:33:15;77.0;;;62.0;;
53939;SDS011;39850;43.324;21.916;2022-10-31T17:37:52;77.0;;;62.0;;
53939;SDS011;39850;43.324;21.916;2022-10-31T17:42:29;82.0;;;66.0;;
53939;SDS011;39850;43.324;21.916;2022-10-31T17:47:06;82.0;;;66.0;;
53939;SDS011;39850;43.324;21.916;2022-10-31T17:51:43;77.0;;;62.0;;
53939;SDS011;39850;43.324;21.916;2022-10-31T17:56:20;77.0;;;62.0;;
53939;SDS011;39850;43.324;21.916;2022-10-31T18:00:58;77.0;;;62.0;;
53939;SDS011;39850;43.324;21.916;2022-10-31T18:33:22;40.0;;;33.0;;
53939;SDS011;39850;43.324;21.916;2022-10-31T18:37:58;40.0;;;33.0;;
53939;SDS011;39850;43.324;21.916;2022-10-31T18:42:35;41.0;;;34.0;;
53939;SDS011;39850;43.324;21.916;2022-10-31T18:47:12;41.0;;;34.0;;
53939;SDS011;39850;43.324;21.916;2022-10-31T18:51:50;42.0;;;35.0;;
53939;SDS011;39850;43.324;21.916;2022-10-31T18:56:30;42.0;;;35.0;;
53939;SDS011;39850;43.324;21.916;2022-10-31T19:01:12;42.0;;;35.0;;
53939;SDS011;39850;43.324;21.916;2022-10-31T19:05:54;44.0;;;36.0;;
53939;SDS011;39850;43.324;21.916;2022-10-31T19:10:35;44.0;;;36.0;;
53939;SDS011;39850;43.324;21.916;2022-10-31T19:15:15;45.0;;;37.0;;
53939;SDS011;39850;43.324;21.916;2022-10-31T19:19:52;45.0;;;37.0;;
53939;SDS011;39850;43.324;21.916;2022-10-31T19:52:11;59.0;;;48.0;;
53939;SDS011;39850;43.324;21.916;2022-10-31T19:56:48;59.0;;;48.0;;
53939;SDS011;39850;43.324;21.916;2022-10-31T20:01:26;59.0;;;48.0;;
53939;SDS011;39850;43.324;21.916;2022-10-31T20:06:06;58.0;;;46.0;;
53939;SDS011;39850;43.324;21.916;2022-10-31T20:11:02;58.0;;;46.0;;
53939;SDS011;39850;43.324;21.916;2022-10-31T20:15:39;57.0;;;45.0;;
53939;SDS011;39850;43.324;21.916;2022-10-31T20:20:16;57.0;;;45.0;;
53939;SDS011;39850;43.324;21.916;2022-10-31T20:24:53;54.0;;;44.0;;
53939;SDS011;39850;43.324;21.916;2022-10-31T20:29:30;54.0;;;44.0;;
53939;SDS011;39850;43.324;21.916;2022-10-31T20:34:07;51.0;;;44.0;;
53939;SDS011;39850;43.324;21.916;2022-10-31T20:38:44;51.0;;;44.0;;
53939;SDS011;39850;43.324;21.916;2022-10-31T21:16:02;51.0;;;43.0;;
53939;SDS011;39850;43.324;21.916;2022-10-31T21:20:43;51.0;;;43.0;;
53939;SDS011;39850;43.324;21.916;2022-10-31T21:25:21;50.0;;;42.0;;
53939;SDS011;39850;43.324;21.916;2022-10-31T21:29:58;50.0;;;42.0;;
53939;SDS011;39850;43.324;21.916;2022-10-31T21:34:35;50.0;;;42.0;;
53939;SDS011;39850;43.324;21.916;2022-10-31T21:39:12;50.0;;;42.0;;
53939;SDS011;39850;43.324;21.916;2022-10-31T21:43:53;50.0;;;42.0;;
53939;SDS011;39850;43.324;21.916;2022-10-31T21:48:31;50.0;;;42.0;;
53939;SDS011;39850;43.324;21.916;2022-10-31T21:53:08;50.0;;;41.0;;
53939;SDS011;39850;43.324;21.916;2022-10-31T21:57:45;50.0;;;41.0;;
53939;SDS011;39850;43.324;21.916;2022-10-31T22:34:56;31.0;;;27.0;;
53939;SDS011;39850;43.324;21.916;2022-10-31T22:39:32;31.0;;;27.0;;
53939;SDS011;39850;43.324;21.916;2022-10-31T22:44:10;32.0;;;28.0;;
53939;SDS011;39850;43.324;21.916;2022-10-31T22:48:58;32.0;;;28.0;;
53939;SDS011;39850;43.324;21.916;2022-10-31T22:53:41;31.0;;;27.0;;
53939;SDS011;39850;43.324;21.916;2022-10-31T22:58:19;31.0;;;27.0;;
53939;SDS011;39850;43.324;21.916;2022-10-31T23:02:56;32.0;;;26.0;;
53939;SDS011;39850;43.324;21.916;2022-10-31T23:07:33;32.0;;;26.0;;
53939;SDS011;39850;43.324;21.916;2022-10-31T23:12:10;32.0;;;26.0;;
53939;SDS011;39850;43.324;21.916;2022-10-31T23:16:55;30.0;;;25.0;;
53939;SDS011;39850;43.324;21.916;2022-10-31T23:21:35;30.0;;;25.0;;
53939;SDS011;39850;43.324;21.916;2022-10-31T23:54:01;34.0;;;31.0;;
53939;SDS011;39850;43.324;21.916;2022-10-31T23:58:39;34.0;;;31.0;;
